Time;durP1;ratioP1;P1;durP2;ratioP2;P2;SDS_P1;SDS_P2;PMS_P1;PMS_P2;Temp;Humidity;BMP_temperature;BMP_pressure;BME280_temperature;BME280_humidity;BME280_pressure;Samples;Min_cycle;Max_cycle;Signal;HPM_P1;HPM_P2
2023/05/13 02:19:49;;;;;;;5.07;1.60;;;;;;;;;;6316444;22;20213;-90
2023/05/13 02:22:54;;;;;;;16.20;5.30;;;;;;;;;;6323903;22;20164;-91
2023/05/13 02:25:59;;;;;;;11.20;4.18;;;;;;;;;;6305613;22;20571;-91
2023/05/13 02:29:06;;;;;;;9.35;2.92;;;;;;;;;;6303975;22;20243;-91
2023/05/13 02:32:12;;;;;;;6.57;2.25;;;;;;;;;;6320935;22;20161;-90
2023/05/13 02:35:19;;;;;;;8.55;1.90;;;;;;;;;;6320082;22;20200;-92
2023/05/13 02:38:24;;;;;;;5.35;2.28;;;;;;;;;;6321259;22;20180;-91
2023/05/13 02:41:30;;;;;;;7.57;1.88;;;;;;;;;;6321679;22;20169;-90
2023/05/13 02:44:44;;;;;;;4.80;1.30;;;;;;;;;;6320775;22;20611;-93
2023/05/13 02:48:17;;;;;;;12.18;1.20;;;;;;;;;;6301659;22;20173;-90
2023/05/13 02:51:24;;;;;;;2.53;1.13;;;;;;;;;;6321527;22;20612;-90
2023/05/13 02:54:29;;;;;;;5.35;1.80;;;;;;;;;;6322287;22;20164;-91
2023/05/13 02:57:34;;;;;;;4.57;1.30;;;;;;;;;;6322630;22;20172;-90
2023/05/13 03:00:39;;;;;;;6.38;1.67;;;;;;;;;;6302094;22;20229;-91
2023/05/13 03:03:44;;;;;;;2.03;1.20;;;;;;;;;;6321091;22;20152;-91
2023/05/13 03:06:51;;;;;;;2.22;1.50;;;;;;;;;;6322496;22;20609;-90
2023/05/13 03:09:57;;;;;;;12.15;2.40;;;;;;;;;;6319699;22;20216;-91
2023/05/13 03:13:02;;;;;;;7.68;1.50;;;;;;;;;;6322530;22;20192;-91
2023/05/13 03:16:09;;;;;;;18.45;4.13;;;;;;;;;;6320739;22;20188;-92
2023/05/13 03:19:15;;;;;;;4.60;1.70;;;;;;;;;;6320070;22;20185;-90
2023/05/13 03:22:21;;;;;;;7.88;1.42;;;;;;;;;;6321748;22;20240;-93
2023/05/13 03:25:27;;;;;;;4.60;2.40;;;;;;;;;;6321940;22;20193;-92
2023/05/13 03:28:36;;;;;;;8.75;2.53;;;;;;;;;;6322259;22;20189;-91
2023/05/13 03:31:41;;;;;;;9.70;2.58;;;;;;;;;;6321762;22;20161;-88
2023/05/13 03:34:46;;;;;;;8.75;2.30;;;;;;;;;;6322428;22;20157;-91
2023/05/13 03:37:58;;;;;;;3.47;1.40;;;;;;;;;;6323086;22;20166;-91
2023/05/13 03:41:03;;;;;;;2.40;1.40;;;;;;;;;;6323866;22;20234;-90
2023/05/13 03:44:14;;;;;;;2.83;1.10;;;;;;;;;;6325555;22;20169;-92
2023/05/13 03:47:21;;;;;;;6.65;1.92;;;;;;;;;;6322633;22;20168;-90
2023/05/13 03:50:26;;;;;;;4.45;2.17;;;;;;;;;;6323112;22;20161;-91
2023/05/13 03:53:32;;;;;;;2.70;1.30;;;;;;;;;;6304783;22;20540;-90
2023/05/13 03:56:37;;;;;;;2.45;1.60;;;;;;;;;;6323339;22;20169;-92
2023/05/13 03:59:43;;;;;;;2.35;1.40;;;;;;;;;;6322779;22;20500;-91
2023/05/13 04:02:53;;;;;;;2.45;1.30;;;;;;;;;;6324123;22;20208;-91
2023/05/13 04:05:59;;;;;;;2.58;1.20;;;;;;;;;;6323507;22;20192;-92
2023/05/13 04:09:06;;;;;;;2.97;1.40;;;;;;;;;;6321376;22;20168;-93
2023/05/13 04:12:11;;;;;;;1.70;1.17;;;;;;;;;;6322977;22;20149;-92
2023/05/13 04:15:18;;;;;;;1.95;1.23;;;;;;;;;;6321064;22;20169;-92
2023/05/13 04:18:23;;;;;;;2.63;1.40;;;;;;;;;;6321311;22;20255;-90
2023/05/13 04:21:28;;;;;;;6.50;1.50;;;;;;;;;;6321350;22;20185;-91
2023/05/13 04:24:36;;;;;;;6.88;1.40;;;;;;;;;;6322319;22;20152;-92
2023/05/13 04:27:41;;;;;;;3.53;1.33;;;;;;;;;;6322600;22;20195;-91
2023/05/13 04:30:53;;;;;;;2.15;1.30;;;;;;;;;;6321639;22;20161;-91
2023/05/13 04:33:58;;;;;;;8.57;1.60;;;;;;;;;;6321113;22;20221;-90
2023/05/13 04:37:05;;;;;;;2.40;1.40;;;;;;;;;;6303305;22;20169;-91
2023/05/13 04:40:12;;;;;;;1.65;1.30;;;;;;;;;;6321764;22;20160;-92
2023/05/13 04:43:17;;;;;;;2.45;1.38;;;;;;;;;;6320806;22;20165;-92
2023/05/13 04:46:39;;;;;;;1.67;1.25;;;;;;;;;;6304267;22;20193;-90
2023/05/13 04:49:44;;;;;;;2.17;1.45;;;;;;;;;;6322653;22;20193;-92
2023/05/13 04:52:50;;;;;;;1.80;1.33;;;;;;;;;;6322580;22;20169;-91
2023/05/13 04:55:59;;;;;;;3.33;1.20;;;;;;;;;;6321399;22;20185;-91
2023/05/13 04:59:05;;;;;;;2.50;1.48;;;;;;;;;;6320598;22;20187;-92
2023/05/13 05:02:11;;;;;;;16.17;2.15;;;;;;;;;;6321458;22;20169;-90
2023/05/13 05:05:16;;;;;;;5.25;1.40;;;;;;;;;;6321251;22;20169;-91
2023/05/13 05:08:22;;;;;;;1.90;1.35;;;;;;;;;;6320820;22;20169;-89
2023/05/13 05:11:31;;;;;;;2.22;1.30;;;;;;;;;;6322635;22;20236;-91
2023/05/13 05:14:37;;;;;;;6.00;1.48;;;;;;;;;;6322803;22;20249;-91
2023/05/13 05:17:45;;;;;;;3.92;1.85;;;;;;;;;;6324231;22;20161;-92
2023/05/13 05:20:51;;;;;;;1.90;1.40;;;;;;;;;;6306658;22;20161;-92
2023/05/13 05:24:00;;;;;;;2.72;1.38;;;;;;;;;;6324403;22;20161;-93
2023/05/13 05:27:07;;;;;;;5.10;1.60;;;;;;;;;;6325417;22;20252;-90
2023/05/13 05:30:14;;;;;;;2.40;1.48;;;;;;;;;;6305861;22;20212;-89
2023/05/13 05:33:21;;;;;;;2.05;1.17;;;;;;;;;;6303845;22;20215;-91
2023/05/13 05:36:26;;;;;;;3.63;1.52;;;;;;;;;;6324458;22;20223;-92
2023/05/13 05:39:31;;;;;;;3.88;1.35;;;;;;;;;;6326229;22;20214;-90
2023/05/13 05:42:39;;;;;;;2.42;1.25;;;;;;;;;;6322477;22;20148;-91
2023/05/13 05:45:46;;;;;;;2.50;1.48;;;;;;;;;;6323204;22;20240;-91
2023/05/13 05:48:55;;;;;;;4.65;1.48;;;;;;;;;;6306503;22;20173;-89
2023/05/13 05:52:01;;;;;;;1.95;1.33;;;;;;;;;;6304177;22;20657;-90
2023/05/13 05:55:07;;;;;;;3.95;1.40;;;;;;;;;;6322192;22;20173;-90
2023/05/13 05:58:16;;;;;;;1.80;1.40;;;;;;;;;;6303820;22;20177;-90
2023/05/13 06:01:32;;;;;;;2.97;0.90;;;;;;;;;;6324002;22;20145;-90
2023/05/13 06:04:40;;;;;;;6.38;1.13;;;;;;;;;;6324295;22;20212;-90
2023/05/13 06:07:46;;;;;;;1.70;1.23;;;;;;;;;;6305124;22;20169;-91
2023/05/13 06:10:52;;;;;;;3.97;0.93;;;;;;;;;;6322644;22;20169;-91
2023/05/13 06:14:04;;;;;;;2.30;1.15;;;;;;;;;;6304530;22;20612;-87
2023/05/13 06:17:09;;;;;;;3.38;1.10;;;;;;;;;;6324108;22;20173;-90
2023/05/13 06:20:16;;;;;;;3.45;0.90;;;;;;;;;;6321084;22;20208;-90
2023/05/13 06:23:21;;;;;;;2.17;1.05;;;;;;;;;;6324263;22;20220;-93
2023/05/13 06:26:26;;;;;;;2.63;1.10;;;;;;;;;;6319991;22;20266;-91
2023/05/13 06:29:34;;;;;;;1.20;0.93;;;;;;;;;;6321460;22;20161;-92
2023/05/13 06:32:39;;;;;;;5.10;1.20;;;;;;;;;;6304416;22;20192;-90
2023/05/13 06:35:48;;;;;;;0.80;0.80;;;;;;;;;;6321420;22;20189;-90
2023/05/13 06:38:54;;;;;;;2.83;0.98;;;;;;;;;;6321594;22;20187;-92
2023/05/13 06:42:01;;;;;;;6.55;1.13;;;;;;;;;;6319588;22;20177;-91
2023/05/13 06:45:38;;;;;;;14.60;1.33;;;;;;;;;;6324302;22;20153;-89
2023/05/13 06:48:50;;;;;;;1.10;0.80;;;;;;;;;;6321066;22;20240;-92
2023/05/13 06:51:55;;;;;;;3.72;0.70;;;;;;;;;;6323603;22;20263;-92
2023/05/13 06:55:01;;;;;;;1.13;0.70;;;;;;;;;;6324436;22;20168;-91
2023/05/13 06:58:07;;;;;;;3.55;0.90;;;;;;;;;;6325896;22;20161;-91
2023/05/13 07:01:12;;;;;;;2.50;0.77;;;;;;;;;;6304388;22;20184;-92
2023/05/13 07:04:24;;;;;;;0.70;0.50;;;;;;;;;;6307690;22;20228;-90
2023/05/13 07:07:29;;;;;;;1.45;0.60;;;;;;;;;;6323741;22;20231;-94
2023/05/13 07:10:34;;;;;;;0.60;0.60;;;;;;;;;;6325881;22;20169;-91
2023/05/13 07:13:40;;;;;;;2.47;0.50;;;;;;;;;;6325221;22;20184;-91
2023/05/13 07:16:45;;;;;;;0.50;0.50;;;;;;;;;;6324009;22;20249;-93
2023/05/13 07:19:55;;;;;;;12.68;1.02;;;;;;;;;;6324345;22;20188;-91
2023/05/13 07:23:01;;;;;;;1.05;0.60;;;;;;;;;;6324774;22;20239;-93
2023/05/13 07:26:06;;;;;;;1.52;0.70;;;;;;;;;;6326449;22;20193;-89
2023/05/13 07:29:12;;;;;;;0.50;0.50;;;;;;;;;;6309186;22;20237;-92
2023/05/13 07:32:18;;;;;;;0.93;0.60;;;;;;;;;;6308372;22;20496;-92
2023/05/13 07:35:26;;;;;;;0.55;0.55;;;;;;;;;;6309927;22;20206;-91
2023/05/13 07:38:32;;;;;;;3.22;0.60;;;;;;;;;;6325183;22;20612;-90
2023/05/13 07:41:37;;;;;;;1.60;0.82;;;;;;;;;;6328764;22;20188;-90
2023/05/13 07:49:07;;;;;;;3.40;0.50;;;;;;;;;;6331861;22;20543;-89
2023/05/13 07:52:14;;;;;;;1.25;0.60;;;;;;;;;;6330538;22;20188;-92
2023/05/13 07:55:20;;;;;;;0.60;0.60;;;;;;;;;;6315230;22;20164;-89
2023/05/13 07:58:36;;;;;;;3.42;1.00;;;;;;;;;;6313347;22;20169;-91
2023/05/13 08:01:44;;;;;;;1.05;0.50;;;;;;;;;;6314417;22;20181;-91
2023/05/13 08:04:54;;;;;;;0.55;0.55;;;;;;;;;;6314595;22;20188;-88
2023/05/13 08:08:05;;;;;;;2.78;0.77;;;;;;;;;;6330960;22;20195;-91
2023/05/13 08:11:12;;;;;;;2.15;0.80;;;;;;;;;;6306685;22;20161;-92
2023/05/13 08:14:17;;;;;;;1.27;0.60;;;;;;;;;;6322946;22;20173;-92
2023/05/13 08:24:42;;;;;;;0.68;0.60;;;;;;;;;;6330963;22;20241;-92
2023/05/13 08:28:06;;;;;;;4.00;0.60;;;;;;;;;;6314672;22;20236;-90
2023/05/13 08:31:17;;;;;;;0.73;0.60;;;;;;;;;;6308296;22;20176;-89
2023/05/13 08:34:24;;;;;;;1.33;0.55;;;;;;;;;;6307562;22;20268;-89
2023/05/13 08:37:30;;;;;;;2.25;1.20;;;;;;;;;;6325916;22;20165;-88
2023/05/13 08:40:36;;;;;;;0.90;0.60;;;;;;;;;;6325817;22;20524;-88
2023/05/13 08:43:43;;;;;;;3.28;0.70;;;;;;;;;;6325420;22;20175;-90
2023/05/13 08:46:58;;;;;;;0.70;0.68;;;;;;;;;;6323689;22;20567;-90
2023/05/13 08:50:04;;;;;;;0.60;0.60;;;;;;;;;;6323593;22;20878;-91
2023/05/13 08:53:10;;;;;;;0.85;0.70;;;;;;;;;;6323331;22;20158;-89
2023/05/13 08:56:16;;;;;;;1.38;0.90;;;;;;;;;;6325142;22;20153;-91
2023/05/13 08:59:22;;;;;;;9.38;1.60;;;;;;;;;;6323499;22;20161;-90
2023/05/13 09:02:29;;;;;;;0.65;0.65;;;;;;;;;;6322400;22;20169;-92
2023/05/13 09:09:01;;;;;;;1.02;0.70;;;;;;;;;;6326170;22;20181;-90
2023/05/13 09:12:07;;;;;;;0.80;0.70;;;;;;;;;;6306799;22;20259;-90
2023/05/13 09:15:13;;;;;;;1.25;0.77;;;;;;;;;;6323917;22;20169;-91
2023/05/13 09:18:21;;;;;;;3.45;0.80;;;;;;;;;;6306775;22;20621;-91
2023/05/13 09:21:27;;;;;;;0.93;0.60;;;;;;;;;;6324043;22;20156;-90
2023/05/13 09:24:32;;;;;;;4.22;1.13;;;;;;;;;;6324238;22;20145;-91
2023/05/13 09:27:40;;;;;;;1.88;1.00;;;;;;;;;;6308634;22;20226;-91
2023/05/13 09:30:56;;;;;;;1.17;0.73;;;;;;;;;;6327712;22;20169;-91
2023/05/13 09:34:20;;;;;;;4.03;0.98;;;;;;;;;;6332627;22;20225;-90
2023/05/13 09:37:26;;;;;;;0.80;0.68;;;;;;;;;;6311383;22;20196;-90
2023/05/13 09:40:34;;;;;;;3.17;1.00;;;;;;;;;;6332445;22;20215;-90
2023/05/13 09:43:45;;;;;;;1.55;0.70;;;;;;;;;;6312217;22;20189;-91
2023/05/13 09:50:19;;;;;;;1.33;1.10;;;;;;;;;;6321859;22;20169;-91
2023/05/13 09:53:25;;;;;;;3.63;2.03;;;;;;;;;;6303079;22;20496;-93
2023/05/13 09:56:31;;;;;;;1.80;0.80;;;;;;;;;;6323692;22;20168;-92
2023/05/13 09:59:37;;;;;;;1.92;0.80;;;;;;;;;;6304969;22;20215;-89
2023/05/13 10:02:43;;;;;;;0.95;0.70;;;;;;;;;;6306002;22;20208;-91
2023/05/13 10:06:06;;;;;;;4.88;1.15;;;;;;;;;;6324896;22;20165;-91
2023/05/13 10:09:13;;;;;;;0.82;0.65;;;;;;;;;;6306557;22;20287;-90
2023/05/13 10:12:20;;;;;;;1.33;0.90;;;;;;;;;;6323405;22;20165;-92
2023/05/13 10:15:26;;;;;;;1.50;0.90;;;;;;;;;;6324022;22;20180;-91
2023/05/13 10:18:32;;;;;;;1.20;0.70;;;;;;;;;;6306181;22;20181;-90
2023/05/13 10:21:39;;;;;;;2.03;0.85;;;;;;;;;;6307112;22;20282;-92
2023/05/13 10:24:46;;;;;;;1.48;1.05;;;;;;;;;;6325653;22;20612;-92
2023/05/13 10:27:53;;;;;;;1.65;0.90;;;;;;;;;;6326908;22;20192;-92
2023/05/13 10:30:59;;;;;;;2.92;0.85;;;;;;;;;;6307085;22;20204;-90
2023/05/13 10:34:08;;;;;;;5.70;0.82;;;;;;;;;;6325318;22;20678;-87
2023/05/13 10:37:34;;;;;;;1.60;1.00;;;;;;;;;;6325146;22;20192;-91
2023/05/13 10:40:53;;;;;;;0.98;0.88;;;;;;;;;;6325321;22;20169;-90
2023/05/13 10:44:07;;;;;;;2.90;1.27;;;;;;;;;;6324234;22;20166;-91
2023/05/13 10:47:18;;;;;;;1.75;1.00;;;;;;;;;;6323882;22;20196;-93
2023/05/13 10:50:28;;;;;;;2.17;0.70;;;;;;;;;;6324223;22;20329;-90
2023/05/13 10:53:37;;;;;;;1.67;0.93;;;;;;;;;;6324918;22;20219;-91
2023/05/13 10:56:44;;;;;;;3.97;0.90;;;;;;;;;;6323037;22;20226;-92
2023/05/13 11:00:04;;;;;;;1.42;0.73;;;;;;;;;;6322408;22;20158;-89
2023/05/13 11:03:16;;;;;;;2.35;0.80;;;;;;;;;;6305678;22;20207;-90
2023/05/13 11:06:25;;;;;;;2.20;1.15;;;;;;;;;;6325416;22;20216;-92
2023/05/13 11:09:32;;;;;;;1.73;1.10;;;;;;;;;;6326987;22;20220;-90
2023/05/13 11:12:41;;;;;;;2.20;1.60;;;;;;;;;;6328112;22;20216;-88
2023/05/13 11:15:49;;;;;;;2.13;1.00;;;;;;;;;;6331487;22;20206;-91
2023/05/13 11:18:55;;;;;;;3.60;1.10;;;;;;;;;;6326206;22;20188;-92
2023/05/13 23:03:24;;;;;;;13.10;6.60;;;;;;;;;;6251986;22;20381;-90
2023/05/13 23:06:29;;;;;;;14.18;7.15;;;;;;;;;;6275049;22;20269;-89
2023/05/13 23:09:35;;;;;;;15.13;7.15;;;;;;;;;;6274832;22;20150;-92
2023/05/13 23:12:40;;;;;;;15.93;7.65;;;;;;;;;;6273538;22;20209;-90
2023/05/13 23:15:45;;;;;;;17.95;7.40;;;;;;;;;;6275395;22;20214;-92
2023/05/13 23:19:25;;;;;;;18.98;7.95;;;;;;;;;;6276890;22;20161;-90
2023/05/13 23:22:32;;;;;;;13.55;6.80;;;;;;;;;;6274352;22;20145;-91
2023/05/13 23:25:37;;;;;;;14.85;7.00;;;;;;;;;;6273983;22;20150;-93
2023/05/13 23:28:42;;;;;;;12.57;6.55;;;;;;;;;;6273550;22;20215;-92
2023/05/13 23:31:47;;;;;;;12.00;6.20;;;;;;;;;;6272003;22;20240;-90
2023/05/13 23:34:52;;;;;;;17.80;9.48;;;;;;;;;;6272976;22;20185;-91
2023/05/13 23:37:59;;;;;;;14.32;6.35;;;;;;;;;;6271658;22;20170;-91
2023/05/13 23:41:04;;;;;;;12.27;6.20;;;;;;;;;;6272325;22;20150;-91
2023/05/13 23:44:10;;;;;;;10.18;5.63;;;;;;;;;;6272403;22;20166;-91
2023/05/13 23:47:20;;;;;;;15.82;6.32;;;;;;;;;;6270902;22;20169;-92
2023/05/13 23:50:25;;;;;;;13.35;6.30;;;;;;;;;;6274345;22;20154;-90
2023/05/13 23:53:32;;;;;;;10.57;6.20;;;;;;;;;;6275790;22;20165;-87
2023/05/13 23:56:37;;;;;;;11.45;6.03;;;;;;;;;;6273074;22;20150;-90
2023/05/13 23:59:42;;;;;;;10.25;6.07;;;;;;;;;;6275632;22;20158;-91
